sensor_id;sensor_type;location;lat;lon;timestamp;pressure;altitude;pressure_sealevel;temperature;humidity
78182;BME280;67441;50.116;8.696;2023-02-28T00:00:04;101371.66;;;-0.44;58.23
78182;BME280;67441;50.116;8.696;2023-02-28T00:00:39;101249.16;;;-1.06;58.19
78182;BME280;67441;50.116;8.696;2023-02-28T00:01:04;101485.47;;;0.28;58.31
78182;BME280;67441;50.116;8.696;2023-02-28T00:01:30;101129.13;;;-1.72;58.20
78182;BME280;67441;50.116;8.696;2023-02-28T00:01:56;101487.94;;;0.27;58.30
78182;BME280;67441;50.116;8.696;2023-02-28T00:02:21;101482.75;;;0.27;58.50
78182;BME280;67441;50.116;8.696;2023-02-28T00:02:46;101495.81;;;0.28;58.62
78182;BME280;67441;50.116;8.696;2023-02-28T00:03:12;101475.88;;;0.27;58.43
78182;BME280;67441;50.116;8.696;2023-02-28T00:03:37;101477.88;;;0.31;58.38
78182;BME280;67441;50.116;8.696;2023-02-28T00:04:02;101480.47;;;0.31;58.50
78182;BME280;67441;50.116;8.696;2023-02-28T00:04:28;101484.66;;;0.29;58.29
78182;BME280;67441;50.116;8.696;2023-02-28T00:04:53;101472.59;;;0.30;58.53
78182;BME280;67441;50.116;8.696;2023-02-28T00:05:27;101485.34;;;0.27;58.27
78182;BME280;67441;50.116;8.696;2023-02-28T00:05:53;101423.31;;;-0.09;58.73
78182;BME280;67441;50.116;8.696;2023-02-28T00:06:18;101478.38;;;0.26;58.68
78182;BME280;67441;50.116;8.696;2023-02-28T00:06:44;100948.97;;;-2.96;58.81
78182;BME280;67441;50.116;8.696;2023-02-28T00:07:09;101471.41;;;0.25;58.87
78182;BME280;67441;50.116;8.696;2023-02-28T00:07:35;101242.09;;;-1.09;58.79
78182;BME280;67441;50.116;8.696;2023-02-28T00:08:00;101472.38;;;0.27;58.75
78182;BME280;67441;50.116;8.696;2023-02-28T00:08:25;101486.72;;;0.10;58.79
78182;BME280;67441;50.116;8.696;2023-02-28T00:08:52;101481.63;;;0.23;58.89
78182;BME280;67441;50.116;8.696;2023-02-28T00:09:17;101248.41;;;-1.17;59.12
78182;BME280;67441;50.116;8.696;2023-02-28T00:09:42;101481.09;;;0.15;59.08
78182;BME280;67441;50.116;8.696;2023-02-28T00:10:10;101479.94;;;0.23;59.16
78182;BME280;67441;50.116;8.696;2023-02-28T00:10:36;101185.53;;;-1.41;58.97
78182;BME280;67441;50.116;8.696;2023-02-28T00:11:02;101479.84;;;0.22;59.20
78182;BME280;67441;50.116;8.696;2023-02-28T00:11:28;101282.06;;;-0.92;59.28
78182;BME280;67441;50.116;8.696;2023-02-28T00:11:53;101483.22;;;0.21;59.43
78182;BME280;67441;50.116;8.696;2023-02-28T00:12:19;101291.28;;;-0.96;59.16
78182;BME280;67441;50.116;8.696;2023-02-28T00:12:44;101477.13;;;0.20;59.66
78182;BME280;67441;50.116;8.696;2023-02-28T00:13:09;101482.31;;;0.20;60.04
78182;BME280;67441;50.116;8.696;2023-02-28T00:13:38;101488.41;;;0.21;59.69
78182;BME280;67441;50.116;8.696;2023-02-28T00:14:04;101484.91;;;0.20;59.81
78182;BME280;67441;50.116;8.696;2023-02-28T00:14:30;101480.66;;;0.21;59.59
78182;BME280;67441;50.116;8.696;2023-02-28T00:14:55;101283.19;;;-0.88;59.46
78182;BME280;67441;50.116;8.696;2023-02-28T00:15:20;101484.13;;;0.21;59.82
78182;BME280;67441;50.116;8.696;2023-02-28T00:15:58;101463.13;;;0.05;59.66
78182;BME280;67441;50.116;8.696;2023-02-28T00:16:24;101414.47;;;-0.36;60.08
78182;BME280;67441;50.116;8.696;2023-02-28T00:16:49;101479.72;;;0.20;59.80
78182;BME280;67441;50.116;8.696;2023-02-28T00:17:14;101251.63;;;-1.08;59.82
78182;BME280;67441;50.116;8.696;2023-02-28T00:17:41;101387.06;;;-0.34;60.06
78182;BME280;67441;50.116;8.696;2023-02-28T00:18:07;101483.91;;;0.18;60.40
78182;BME280;67441;50.116;8.696;2023-02-28T00:18:32;101481.19;;;0.17;60.28
78182;BME280;67441;50.116;8.696;2023-02-28T00:18:58;101472.31;;;0.13;60.09
78182;BME280;67441;50.116;8.696;2023-02-28T00:19:23;101379.31;;;-0.45;60.02
78182;BME280;67441;50.116;8.696;2023-02-28T00:19:48;101475.78;;;0.14;60.32
78182;BME280;67441;50.116;8.696;2023-02-28T00:20:14;101063.53;;;-2.34;60.30
78182;BME280;67441;50.116;8.696;2023-02-28T00:20:40;101255.44;;;-1.14;60.41
78182;BME280;67441;50.116;8.696;2023-02-28T00:21:06;101479.31;;;0.14;60.48
78182;BME280;67441;50.116;8.696;2023-02-28T00:21:31;101493.25;;;0.16;60.36
78182;BME280;67441;50.116;8.696;2023-02-28T00:21:57;101467.94;;;0.12;60.64
78182;BME280;67441;50.116;8.696;2023-02-28T00:22:22;101477.94;;;0.19;60.71
78182;BME280;67441;50.116;8.696;2023-02-28T00:22:51;101460.44;;;0.04;60.72
78182;BME280;67441;50.116;8.696;2023-02-28T00:23:16;101477.41;;;0.12;60.95
78182;BME280;67441;50.116;8.696;2023-02-28T00:23:42;101477.50;;;0.13;60.73
78182;BME280;67441;50.116;8.696;2023-02-28T00:24:07;101492.47;;;0.17;60.94
78182;BME280;67441;50.116;8.696;2023-02-28T00:24:32;101482.44;;;0.22;60.93
78182;BME280;67441;50.116;8.696;2023-02-28T00:24:58;101413.00;;;-0.20;60.82
78182;BME280;67441;50.116;8.696;2023-02-28T00:25:24;101480.19;;;0.15;61.13
78182;BME280;67441;50.116;8.696;2023-02-28T00:25:50;101195.75;;;-1.42;60.95
78182;BME280;67441;50.116;8.696;2023-02-28T00:26:15;101479.84;;;0.10;61.29
78182;BME280;67441;50.116;8.696;2023-02-28T00:26:40;101481.78;;;0.13;61.23
78182;BME280;67441;50.116;8.696;2023-02-28T00:27:05;101477.97;;;0.08;61.48
78182;BME280;67441;50.116;8.696;2023-02-28T00:27:31;101358.66;;;-0.57;61.47
78182;BME280;67441;50.116;8.696;2023-02-28T00:27:56;101478.88;;;0.08;61.49
78182;BME280;67441;50.116;8.696;2023-02-28T00:28:22;101510.16;;;0.11;61.53
78182;BME280;67441;50.116;8.696;2023-02-28T00:28:47;101476.38;;;0.10;61.59
78182;BME280;67441;50.116;8.696;2023-02-28T00:29:13;101428.44;;;-0.34;61.64
78182;BME280;67441;50.116;8.696;2023-02-28T00:29:38;101482.25;;;0.07;61.67
78182;BME280;67441;50.116;8.696;2023-02-28T00:30:05;101483.03;;;0.06;61.55
78182;BME280;67441;50.116;8.696;2023-02-28T00:30:31;101487.97;;;0.03;61.74
78182;BME280;67441;50.116;8.696;2023-02-28T00:30:56;101488.91;;;0.04;61.95
78182;BME280;67441;50.116;8.696;2023-02-28T00:31:22;101108.13;;;-2.11;61.22
78182;BME280;67441;50.116;8.696;2023-02-28T00:31:47;101485.38;;;0.03;61.92
78182;BME280;67441;50.116;8.696;2023-02-28T00:32:13;101284.88;;;-1.12;61.92
78182;BME280;67441;50.116;8.696;2023-02-28T00:32:38;101485.28;;;0.02;62.04
78182;BME280;67441;50.116;8.696;2023-02-28T00:33:04;101483.38;;;-0.01;62.00
78182;BME280;67441;50.116;8.696;2023-02-28T00:33:30;101483.59;;;0.02;62.39
78182;BME280;67441;50.116;8.696;2023-02-28T00:33:55;101506.81;;;0.01;62.17
78182;BME280;67441;50.116;8.696;2023-02-28T00:34:20;101480.34;;;0.05;62.09
78182;BME280;67441;50.116;8.696;2023-02-28T00:34:46;101428.88;;;-0.28;62.29
78182;BME280;67441;50.116;8.696;2023-02-28T00:35:12;101124.75;;;-1.96;62.25
78182;BME280;67441;50.116;8.696;2023-02-28T00:35:40;101487.53;;;0.09;62.02
78182;BME280;67441;50.116;8.696;2023-02-28T00:36:06;101483.59;;;0.02;62.12
78182;BME280;67441;50.116;8.696;2023-02-28T00:36:32;101491.16;;;-0.01;62.25
78182;BME280;67441;50.116;8.696;2023-02-28T00:36:57;101480.56;;;-0.04;62.38
78182;BME280;67441;50.116;8.696;2023-02-28T00:37:23;101421.69;;;-0.43;62.84
78182;BME280;67441;50.116;8.696;2023-02-28T00:37:48;101490.59;;;-0.09;62.70
78182;BME280;67441;50.116;8.696;2023-02-28T00:38:15;101359.34;;;-0.83;62.70
78182;BME280;67441;50.116;8.696;2023-02-28T00:38:40;101483.41;;;-0.13;63.03
78182;BME280;67441;50.116;8.696;2023-02-28T00:39:06;101273.31;;;-1.29;62.98
78182;BME280;67441;50.116;8.696;2023-02-28T00:39:32;101486.31;;;-0.08;62.81
78182;BME280;67441;50.116;8.696;2023-02-28T00:40:07;101489.59;;;-0.11;62.96
78182;BME280;67441;50.116;8.696;2023-02-28T00:40:37;101499.03;;;-0.11;62.89
78182;BME280;67441;50.116;8.696;2023-02-28T00:41:03;101485.19;;;-0.12;62.84
78182;BME280;67441;50.116;8.696;2023-02-28T00:41:31;101344.75;;;-0.94;62.89
78182;BME280;67441;50.116;8.696;2023-02-28T00:41:56;101481.81;;;-0.11;63.30
78182;BME280;67441;50.116;8.696;2023-02-28T00:42:22;101483.72;;;-0.08;63.14
78182;BME280;67441;50.116;8.696;2023-02-28T00:42:47;101481.16;;;-0.08;63.10
78182;BME280;67441;50.116;8.696;2023-02-28T00:43:13;101487.78;;;-0.12;63.09
78182;BME280;67441;50.116;8.696;2023-02-28T00:43:38;101480.81;;;-0.13;63.17
78182;BME280;67441;50.116;8.696;2023-02-28T00:44:04;101481.72;;;-0.12;63.35
78182;BME280;67441;50.116;8.696;2023-02-28T00:44:29;101477.22;;;-0.15;63.29
78182;BME280;67441;50.116;8.696;2023-02-28T00:44:54;101142.69;;;-2.09;63.11
78182;BME280;67441;50.116;8.696;2023-02-28T00:45:20;101484.88;;;-0.16;63.35
78182;BME280;67441;50.116;8.696;2023-02-28T00:45:45;101244.38;;;-1.49;63.13
78182;BME280;67441;50.116;8.696;2023-02-28T00:46:10;101499.38;;;-0.18;63.51
78182;BME280;67441;50.116;8.696;2023-02-28T00:46:36;101488.22;;;-0.17;63.80
78182;BME280;67441;50.116;8.696;2023-02-28T00:47:01;101483.19;;;-0.16;63.72
78182;BME280;67441;50.116;8.696;2023-02-28T00:47:27;101487.69;;;-0.13;63.57
78182;BME280;67441;50.116;8.696;2023-02-28T00:47:52;101134.63;;;-2.14;63.25
78182;BME280;67441;50.116;8.696;2023-02-28T00:48:17;101481.72;;;-0.12;63.48
78182;BME280;67441;50.116;8.696;2023-02-28T00:48:43;101481.50;;;-0.15;63.59
78182;BME280;67441;50.116;8.696;2023-02-28T00:49:08;101494.34;;;-0.17;63.44
78182;BME280;67441;50.116;8.696;2023-02-28T00:49:33;101485.56;;;-0.19;63.86
78182;BME280;67441;50.116;8.696;2023-02-28T00:49:59;101485.66;;;-0.17;63.88
78182;BME280;67441;50.116;8.696;2023-02-28T00:50:24;101484.00;;;-0.17;63.99
78182;BME280;67441;50.116;8.696;2023-02-28T00:50:50;101482.28;;;-0.16;63.83
78182;BME280;67441;50.116;8.696;2023-02-28T00:51:15;101346.69;;;-1.04;63.85
78182;BME280;67441;50.116;8.696;2023-02-28T00:51:40;101482.88;;;-0.20;64.24
78182;BME280;67441;50.116;8.696;2023-02-28T00:52:06;101258.28;;;-1.58;63.82
78182;BME280;67441;50.116;8.696;2023-02-28T00:52:31;101481.75;;;-0.24;64.20
78182;BME280;67441;50.116;8.696;2023-02-28T00:52:56;101480.81;;;-0.25;64.34
78182;BME280;67441;50.116;8.696;2023-02-28T00:53:22;101484.22;;;-0.14;63.96
78182;BME280;67441;50.116;8.696;2023-02-28T00:53:47;101472.84;;;-0.16;64.01
78182;BME280;67441;50.116;8.696;2023-02-28T00:54:13;101439.56;;;-0.35;64.17
78182;BME280;67441;50.116;8.696;2023-02-28T00:54:39;101480.03;;;-0.12;64.10
78182;BME280;67441;50.116;8.696;2023-02-28T00:55:04;101477.56;;;-0.22;63.97
78182;BME280;67441;50.116;8.696;2023-02-28T00:55:30;101487.56;;;-0.15;64.05
78182;BME280;67441;50.116;8.696;2023-02-28T00:55:55;101356.31;;;-1.01;63.95
78182;BME280;67441;50.116;8.696;2023-02-28T00:56:21;101480.91;;;-0.11;64.24
78182;BME280;67441;50.116;8.696;2023-02-28T00:56:46;101479.81;;;-0.15;64.02
78182;BME280;67441;50.116;8.696;2023-02-28T00:57:12;101480.59;;;-0.16;63.86
78182;BME280;67441;50.116;8.696;2023-02-28T00:57:37;101482.53;;;-0.13;64.21
78182;BME280;67441;50.116;8.696;2023-02-28T00:58:03;101131.59;;;-2.08;64.12
78182;BME280;67441;50.116;8.696;2023-02-28T00:58:28;101480.03;;;-0.12;64.01
78182;BME280;67441;50.116;8.696;2023-02-28T00:58:54;101481.63;;;-0.14;64.42
78182;BME280;67441;50.116;8.696;2023-02-28T00:59:19;101477.88;;;-0.17;64.48
78182;BME280;67441;50.116;8.696;2023-02-28T00:59:44;101476.91;;;-0.19;64.27
78182;BME280;67441;50.116;8.696;2023-02-28T01:00:10;101482.16;;;-0.18;64.46
78182;BME280;67441;50.116;8.696;2023-02-28T01:00:36;101145.16;;;-2.11;64.08
78182;BME280;67441;50.116;8.696;2023-02-28T01:01:01;101481.28;;;-0.18;64.26
78182;BME280;67441;50.116;8.696;2023-02-28T01:01:26;101484.88;;;-0.16;64.29
78182;BME280;67441;50.116;8.696;2023-02-28T01:01:52;101481.28;;;-0.18;64.45
78182;BME280;67441;50.116;8.696;2023-02-28T01:02:17;101484.75;;;-0.18;64.57
78182;BME280;67441;50.116;8.696;2023-02-28T01:02:44;101486.56;;;-0.17;64.48
78182;BME280;67441;50.116;8.696;2023-02-28T01:03:10;101480.38;;;-0.19;64.61
78182;BME280;67441;50.116;8.696;2023-02-28T01:03:35;101432.59;;;-0.59;64.31
78182;BME280;67441;50.116;8.696;2023-02-28T01:04:01;101251.34;;;-1.48;64.14
78182;BME280;67441;50.116;8.696;2023-02-28T01:04:26;101482.97;;;-0.19;64.64
78182;BME280;67441;50.116;8.696;2023-02-28T01:04:51;101388.88;;;-0.80;64.64
78182;BME280;67441;50.116;8.696;2023-02-28T01:05:17;101492.41;;;-0.19;64.68
78182;BME280;67441;50.116;8.696;2023-02-28T01:05:42;101270.97;;;-1.38;64.66
78182;BME280;67441;50.116;8.696;2023-02-28T01:06:08;101484.88;;;-0.16;64.68
78182;BME280;67441;50.116;8.696;2023-02-28T01:06:33;101491.84;;;-0.15;64.65
78182;BME280;67441;50.116;8.696;2023-02-28T01:06:58;101487.69;;;-0.13;64.74
78182;BME280;67441;50.116;8.696;2023-02-28T01:07:24;101485.56;;;-0.19;64.77
78182;BME280;67441;50.116;8.696;2023-02-28T01:07:49;101479.47;;;-0.19;64.89
78182;BME280;67441;50.116;8.696;2023-02-28T01:08:14;101420.13;;;-0.53;64.72
78182;BME280;67441;50.116;8.696;2023-02-28T01:08:40;101482.28;;;-0.16;64.65
78182;BME280;67441;50.116;8.696;2023-02-28T01:09:06;101469.03;;;-0.33;65.18
78182;BME280;67441;50.116;8.696;2023-02-28T01:09:31;101478.91;;;-0.15;65.12
78182;BME280;67441;50.116;8.696;2023-02-28T01:09:57;101482.28;;;-0.16;64.88
78182;BME280;67441;50.116;8.696;2023-02-28T01:10:22;101483.84;;;-0.18;64.94
78182;BME280;67441;50.116;8.696;2023-02-28T01:10:48;101459.94;;;-0.28;65.20
78182;BME280;67441;50.116;8.696;2023-02-28T01:11:15;101483.28;;;-0.14;64.87
78182;BME280;67441;50.116;8.696;2023-02-28T01:11:41;101478.91;;;-0.15;65.18
78182;BME280;67441;50.116;8.696;2023-02-28T01:12:09;101486.00;;;-0.13;64.82
78182;BME280;67441;50.116;8.696;2023-02-28T01:12:34;101481.28;;;-0.18;65.25
78182;BME280;67441;50.116;8.696;2023-02-28T01:12:59;101429.69;;;-0.52;65.16
78182;BME280;67441;50.116;8.696;2023-02-28T01:13:25;101483.19;;;-0.16;64.97
78182;BME280;67441;50.116;8.696;2023-02-28T01:13:50;101484.53;;;-0.21;65.31
78182;BME280;67441;50.116;8.696;2023-02-28T01:14:16;101403.75;;;-0.65;65.58
78182;BME280;67441;50.116;8.696;2023-02-28T01:14:42;101409.00;;;-0.64;65.37
78182;BME280;67441;50.116;8.696;2023-02-28T01:15:09;101479.16;;;-0.24;65.32
78182;BME280;67441;50.116;8.696;2023-02-28T01:15:35;101497.03;;;-0.27;65.73
78182;BME280;67441;50.116;8.696;2023-02-28T01:16:00;101478.13;;;-0.26;65.77
78182;BME280;67441;50.116;8.696;2023-02-28T01:16:27;101500.84;;;-0.22;65.24
78182;BME280;67441;50.116;8.696;2023-02-28T01:16:52;101027.94;;;-2.85;65.31
78182;BME280;67441;50.116;8.696;2023-02-28T01:17:17;101474.00;;;-0.24;65.68
78182;BME280;67441;50.116;8.696;2023-02-28T01:17:43;101466.47;;;-0.44;65.75
78182;BME280;67441;50.116;8.696;2023-02-28T01:18:08;101476.56;;;-0.24;65.53
78182;BME280;67441;50.116;8.696;2023-02-28T01:18:34;101243.78;;;-1.56;65.86
78182;BME280;67441;50.116;8.696;2023-02-28T01:18:59;101284.34;;;-1.44;65.97
78182;BME280;67441;50.116;8.696;2023-02-28T01:19:24;101481.63;;;-0.26;65.85
78182;BME280;67441;50.116;8.696;2023-02-28T01:19:53;100929.59;;;-3.60;65.38
78182;BME280;67441;50.116;8.696;2023-02-28T01:20:19;101488.25;;;-0.29;65.98
78182;BME280;67441;50.116;8.696;2023-02-28T01:20:44;101476.22;;;-0.29;65.98
78182;BME280;67441;50.116;8.696;2023-02-28T01:21:14;101388.34;;;-0.76;65.92
78182;BME280;67441;50.116;8.696;2023-02-28T01:21:40;101354.19;;;-0.95;65.90
78182;BME280;67441;50.116;8.696;2023-02-28T01:22:05;101474.00;;;-0.24;66.16
78182;BME280;67441;50.116;8.696;2023-02-28T01:22:31;101400.59;;;-0.61;65.74
78182;BME280;67441;50.116;8.696;2023-02-28T01:22:56;101469.34;;;-0.28;66.05
78182;BME280;67441;50.116;8.696;2023-02-28T01:23:22;101364.75;;;-0.92;65.91
78182;BME280;67441;50.116;8.696;2023-02-28T01:23:48;101382.81;;;-0.80;65.90
78182;BME280;67441;50.116;8.696;2023-02-28T01:24:14;101469.59;;;-0.25;65.98
78182;BME280;67441;50.116;8.696;2023-02-28T01:24:39;101408.00;;;-0.66;66.32
78182;BME280;67441;50.116;8.696;2023-02-28T01:25:05;101259.97;;;-1.59;66.07
78182;BME280;67441;50.116;8.696;2023-02-28T01:25:30;101475.31;;;-0.29;66.37
78182;BME280;67441;50.116;8.696;2023-02-28T01:26:09;101478.94;;;-0.27;66.12
78182;BME280;67441;50.116;8.696;2023-02-28T01:26:35;101015.28;;;-2.94;66.17
78182;BME280;67441;50.116;8.696;2023-02-28T01:27:00;101477.03;;;-0.30;66.51
78182;BME280;67441;50.116;8.696;2023-02-28T01:27:26;101480.72;;;-0.26;66.08
78182;BME280;67441;50.116;8.696;2023-02-28T01:27:52;101472.06;;;-0.27;66.39
78182;BME280;67441;50.116;8.696;2023-02-28T01:28:17;101280.72;;;-1.69;66.50
78182;BME280;67441;50.116;8.696;2023-02-28T01:28:42;101472.41;;;-0.34;66.58
78182;BME280;67441;50.116;8.696;2023-02-28T01:29:08;101501.09;;;-0.31;66.49
78182;BME280;67441;50.116;8.696;2023-02-28T01:29:33;101478.34;;;-0.35;66.57
78182;BME280;67441;50.116;8.696;2023-02-28T01:29:58;101477.69;;;-0.32;66.50
78182;BME280;67441;50.116;8.696;2023-02-28T01:30:24;101057.97;;;-2.85;66.48
78182;BME280;67441;50.116;8.696;2023-02-28T01:30:49;101468.72;;;-0.37;66.75
78182;BME280;67441;50.116;8.696;2023-02-28T01:31:16;101471.06;;;-0.40;66.95
78182;BME280;67441;50.116;8.696;2023-02-28T01:31:41;101178.25;;;-2.05;66.67
78182;BME280;67441;50.116;8.696;2023-02-28T01:32:07;101476.13;;;-0.42;66.75
78182;BME280;67441;50.116;8.696;2023-02-28T01:32:32;101485.94;;;-0.38;66.52
78182;BME280;67441;50.116;8.696;2023-02-28T01:32:57;101477.03;;;-0.41;66.89
78182;BME280;67441;50.116;8.696;2023-02-28T01:33:23;101268.63;;;-1.58;67.07
78182;BME280;67441;50.116;8.696;2023-02-28T01:33:48;101467.59;;;-0.41;67.08
78182;BME280;67441;50.116;8.696;2023-02-28T01:34:14;101071.31;;;-2.68;66.99
78182;BME280;67441;50.116;8.696;2023-02-28T01:34:39;101472.53;;;-0.44;67.22
78182;BME280;67441;50.116;8.696;2023-02-28T01:35:05;101485.47;;;-0.44;66.91
78182;BME280;67441;50.116;8.696;2023-02-28T01:35:34;101469.16;;;-0.43;66.94
78182;BME280;67441;50.116;8.696;2023-02-28T01:36:05;101476.91;;;-0.43;67.25
78182;BME280;67441;50.116;8.696;2023-02-28T01:36:31;101348.69;;;-1.11;67.15
78182;BME280;67441;50.116;8.696;2023-02-28T01:36:56;101468.34;;;-0.42;67.04
78182;BME280;67441;50.116;8.696;2023-02-28T01:37:23;101471.28;;;-0.37;67.25
78182;BME280;67441;50.116;8.696;2023-02-28T01:37:49;101471.88;;;-0.41;67.12
78182;BME280;67441;50.116;8.696;2023-02-28T01:38:15;101001.22;;;-3.09;67.25
78182;BME280;67441;50.116;8.696;2023-02-28T01:38:41;101473.53;;;-0.42;67.45
78182;BME280;67441;50.116;8.696;2023-02-28T01:39:07;101384.53;;;-0.92;66.98
78182;BME280;67441;50.116;8.696;2023-02-28T01:39:32;101472.41;;;-0.34;67.03
78182;BME280;67441;50.116;8.696;2023-02-28T01:39:58;101469.59;;;-0.37;66.82
78182;BME280;67441;50.116;8.696;2023-02-28T01:40:23;101237.41;;;-1.73;66.86
78182;BME280;67441;50.116;8.696;2023-02-28T01:40:51;100822.34;;;-4.28;66.48
78182;BME280;67441;50.116;8.696;2023-02-28T01:41:27;101473.75;;;-0.39;67.23
78182;BME280;67441;50.116;8.696;2023-02-28T01:41:53;101181.06;;;-2.02;67.20
78182;BME280;67441;50.116;8.696;2023-02-28T01:42:18;101469.16;;;-0.43;66.83
78182;BME280;67441;50.116;8.696;2023-02-28T01:42:44;101249.75;;;-1.69;66.57
78182;BME280;67441;50.116;8.696;2023-02-28T01:43:17;101470.41;;;-0.38;66.68
78182;BME280;67441;50.116;8.696;2023-02-28T01:45:03;101464.56;;;-0.47;66.85
78182;BME280;67441;50.116;8.696;2023-02-28T01:45:30;101284.09;;;-1.47;67.23
78182;BME280;67441;50.116;8.696;2023-02-28T01:45:57;101464.78;;;-0.44;66.99
78182;BME280;67441;50.116;8.696;2023-02-28T01:46:23;101446.88;;;-0.53;66.86
78182;BME280;67441;50.116;8.696;2023-02-28T01:46:48;101460.50;;;-0.43;66.77
78182;BME280;67441;50.116;8.696;2023-02-28T01:47:14;101410.72;;;-0.76;66.81
78182;BME280;67441;50.116;8.696;2023-02-28T01:47:40;101457.59;;;-0.48;66.77
78182;BME280;67441;50.116;8.696;2023-02-28T01:48:08;101468.03;;;-0.46;66.74
78182;BME280;67441;50.116;8.696;2023-02-28T01:48:40;101071.09;;;-2.71;66.57
78182;BME280;67441;50.116;8.696;2023-02-28T01:49:16;101462.63;;;-0.50;66.56
78182;BME280;67441;50.116;8.696;2023-02-28T01:49:42;101147.16;;;-2.30;66.24
78182;BME280;67441;50.116;8.696;2023-02-28T01:50:09;101458.00;;;-0.42;66.62
78182;BME280;67441;50.116;8.696;2023-02-28T01:50:40;101459.69;;;-0.42;66.54
78182;BME280;67441;50.116;8.696;2023-02-28T01:51:14;101265.16;;;-1.59;66.91
78182;BME280;67441;50.116;8.696;2023-02-28T01:51:50;101431.81;;;-0.70;66.59
78182;BME280;67441;50.116;8.696;2023-02-28T01:52:18;101459.84;;;-0.41;66.29
78182;BME280;67441;50.116;8.696;2023-02-28T01:52:45;101405.31;;;-0.79;66.53
78182;BME280;67441;50.116;8.696;2023-02-28T01:53:15;101353.19;;;-1.09;66.56
78182;BME280;67441;50.116;8.696;2023-02-28T01:53:45;101461.97;;;-0.47;66.63
78182;BME280;67441;50.116;8.696;2023-02-28T01:54:21;101406.31;;;-0.77;66.70
78182;BME280;67441;50.116;8.696;2023-02-28T01:54:52;101471.50;;;-0.46;66.27
78182;BME280;67441;50.116;8.696;2023-02-28T01:55:20;101283.88;;;-1.50;66.56
78182;BME280;67441;50.116;8.696;2023-02-28T01:55:50;101365.88;;;-1.12;66.79
78182;BME280;67441;50.116;8.696;2023-02-28T01:56:20;101459.94;;;-0.51;66.26
78182;BME280;67441;50.116;8.696;2023-02-28T01:56:52;101348.81;;;-1.10;67.04
78182;BME280;67441;50.116;8.696;2023-02-28T01:57:22;101464.31;;;-0.50;66.66
78182;BME280;67441;50.116;8.696;2023-02-28T01:57:52;101460.03;;;-0.50;66.92
78182;BME280;67441;50.116;8.696;2023-02-28T01:58:20;101356.66;;;-1.08;66.72
78182;BME280;67441;50.116;8.696;2023-02-28T01:58:45;101460.28;;;-0.46;66.76
78182;BME280;67441;50.116;8.696;2023-02-28T01:59:33;101495.69;;;-0.45;65.65
78182;BME280;67441;50.116;8.696;2023-02-28T02:00:02;101240.44;;;-1.67;66.34
78182;BME280;67441;50.116;8.696;2023-02-28T02:00:32;101398.09;;;-0.83;66.22
78182;BME280;67441;50.116;8.696;2023-02-28T02:00:58;101462.06;;;-0.45;66.77
78182;BME280;67441;50.116;8.696;2023-02-28T02:01:24;101383.41;;;-0.84;66.43
78182;BME280;67441;50.116;8.696;2023-02-28T02:01:51;101458.00;;;-0.42;66.77
78182;BME280;67441;50.116;8.696;2023-02-28T02:02:20;101462.41;;;-0.41;66.21
78182;BME280;67441;50.116;8.696;2023-02-28T02:02:49;101477.03;;;-0.41;66.63
78182;BME280;67441;50.116;8.696;2023-02-28T02:03:17;101314.66;;;-1.17;66.25
78182;BME280;67441;50.116;8.696;2023-02-28T02:03:44;101462.41;;;-0.41;66.12
78182;BME280;67441;50.116;8.696;2023-02-28T02:04:09;101464.09;;;-0.41;66.15
78182;BME280;67441;50.116;8.696;2023-02-28T02:04:40;101342.50;;;-1.25;65.70
78182;BME280;67441;50.116;8.696;2023-02-28T02:05:12;101254.03;;;-1.58;65.84
78182;BME280;67441;50.116;8.696;2023-02-28T02:05:40;101453.75;;;-0.41;65.63
78182;BME280;67441;50.116;8.696;2023-02-28T02:06:05;101223.72;;;-1.72;65.55
78182;BME280;67441;50.116;8.696;2023-02-28T02:06:34;101452.75;;;-0.43;65.50
78182;BME280;67441;50.116;8.696;2023-02-28T02:07:01;101316.91;;;-1.22;65.30
78182;BME280;67441;50.116;8.696;2023-02-28T02:07:26;101453.53;;;-0.44;65.60
78182;BME280;67441;50.116;8.696;2023-02-28T02:07:55;101062.84;;;-2.67;65.42
78182;BME280;67441;50.116;8.696;2023-02-28T02:08:26;101450.38;;;-0.40;65.27
78182;BME280;67441;50.116;8.696;2023-02-28T02:08:53;101464.66;;;-0.45;65.34
78182;BME280;67441;50.116;8.696;2023-02-28T02:09:19;100997.91;;;-3.08;65.30
78182;BME280;67441;50.116;8.696;2023-02-28T02:09:44;101451.38;;;-0.50;65.58
78182;BME280;67441;50.116;8.696;2023-02-28T02:10:15;101093.19;;;-2.51;65.57
78182;BME280;67441;50.116;8.696;2023-02-28T02:10:45;101455.75;;;-0.49;65.72
78182;BME280;67441;50.116;8.696;2023-02-28T02:11:13;101455.91;;;-0.47;65.57
78182;BME280;67441;50.116;8.696;2023-02-28T02:11:43;101448.91;;;-0.49;65.64
78182;BME280;67441;50.116;8.696;2023-02-28T02:15:10;101452.94;;;-0.52;65.50
78182;BME280;67441;50.116;8.696;2023-02-28T02:17:19;101449.06;;;-0.59;65.49
78182;BME280;67441;50.116;8.696;2023-02-28T02:17:52;101446.56;;;-0.57;65.72
78182;BME280;67441;50.116;8.696;2023-02-28T02:18:44;101447.22;;;-0.60;65.78
78182;BME280;67441;50.116;8.696;2023-02-28T02:22:01;101220.88;;;-1.99;65.91
78182;BME280;67441;50.116;8.696;2023-02-28T02:23:07;101346.53;;;-1.29;65.91
78182;BME280;67441;50.116;8.696;2023-02-28T02:25:42;101440.94;;;-0.75;66.02
78182;BME280;67441;50.116;8.696;2023-02-28T02:26:34;101442.50;;;-0.77;65.92
78182;BME280;67441;50.116;8.696;2023-02-28T02:27:17;101461.06;;;-0.71;66.06
78182;BME280;67441;50.116;8.696;2023-02-28T02:30:24;101422.84;;;-0.87;65.82
78182;BME280;67441;50.116;8.696;2023-02-28T02:34:23;101451.06;;;-0.90;65.87
78182;BME280;67441;50.116;8.696;2023-02-28T02:35:01;101324.94;;;-1.64;65.90
78182;BME280;67441;50.116;8.696;2023-02-28T02:36:25;101448.25;;;-0.93;66.09
78182;BME280;67441;50.116;8.696;2023-02-28T02:37:17;101448.25;;;-0.93;66.04
78182;BME280;67441;50.116;8.696;2023-02-28T02:37:52;101247.66;;;-2.08;66.04
78182;BME280;67441;50.116;8.696;2023-02-28T02:39:08;101451.72;;;-0.92;65.59
78182;BME280;67441;50.116;8.696;2023-02-28T02:40:09;101450.94;;;-0.91;66.25
78182;BME280;67441;50.116;8.696;2023-02-28T02:40:53;101451.59;;;-0.94;65.42
78182;BME280;67441;50.116;8.696;2023-02-28T02:41:41;101446.75;;;-1.01;65.47
78182;BME280;67441;50.116;8.696;2023-02-28T02:42:20;101411.16;;;-1.17;65.80